createdAt,value
2017-05-10T00:02:05.322Z,8.00
2017-05-10T00:04:36.624Z,8.00
2017-05-10T00:07:05.076Z,8.00
2017-05-10T00:09:33.522Z,8.00
2017-05-10T00:12:01.929Z,8.00
2017-05-10T00:14:30.315Z,7.90
2017-05-10T00:16:58.663Z,8.00
2017-05-10T00:19:27.264Z,8.00
2017-05-10T00:21:55.713Z,8.00
2017-05-10T00:24:24.206Z,8.00
2017-05-10T00:26:52.695Z,7.90
2017-05-10T00:29:21.646Z,8.00
2017-05-10T00:31:50.126Z,8.00
2017-05-10T00:34:18.549Z,8.00
2017-05-10T00:36:47.705Z,8.00
2017-05-10T00:39:16.055Z,8.10
2017-05-10T00:41:44.441Z,8.00
2017-05-10T00:44:12.810Z,8.00
2017-05-10T00:46:41.159Z,8.00
2017-05-10T00:49:10.253Z,7.90
2017-05-10T00:51:39.432Z,8.00
2017-05-10T00:54:08.543Z,7.90
2017-05-10T00:56:37.639Z,7.90
2017-05-10T00:59:06.698Z,8.00
2017-05-10T01:01:35.029Z,7.90
2017-05-10T01:04:03.418Z,7.90
2017-05-10T01:06:31.771Z,7.90
2017-05-10T01:09:01.516Z,7.80
2017-05-10T01:11:29.813Z,7.90
2017-05-10T01:13:58.616Z,7.90
2017-05-10T01:16:27.797Z,7.90
2017-05-10T01:18:56.123Z,7.90
2017-05-10T01:21:25.206Z,7.80
2017-05-10T01:23:54.249Z,7.80
2017-05-10T01:26:22.615Z,7.80
2017-05-10T01:28:50.932Z,7.80
2017-05-10T01:31:19.264Z,7.90
2017-05-10T01:33:47.587Z,7.90
2017-05-10T01:36:15.920Z,7.90
2017-05-10T01:38:44.231Z,7.90
2017-05-10T01:41:12.560Z,7.90
2017-05-10T01:43:41.570Z,7.80
2017-05-10T01:46:10.147Z,7.80
2017-05-10T01:48:38.486Z,7.80
2017-05-10T01:51:06.869Z,7.90
2017-05-10T01:53:35.280Z,7.80
2017-05-10T01:56:03.578Z,7.90
2017-05-10T01:58:32.794Z,7.90
2017-05-10T02:01:01.131Z,7.90
2017-05-10T02:03:29.518Z,7.90
2017-05-10T02:05:57.833Z,7.80
2017-05-10T02:08:26.146Z,7.80
2017-05-10T02:10:55.188Z,7.80
2017-05-10T02:13:23.546Z,7.80
2017-05-10T02:15:51.957Z,7.90
2017-05-10T02:18:20.399Z,7.90
2017-05-10T02:20:48.700Z,7.80
2017-05-10T02:23:17.093Z,7.80
2017-05-10T02:25:46.293Z,7.80
2017-05-10T02:28:14.679Z,7.80
2017-05-10T02:30:43.045Z,7.80
2017-05-10T02:33:11.422Z,7.80
2017-05-10T02:35:39.808Z,7.80
2017-05-10T02:38:08.204Z,7.80
2017-05-10T02:40:36.698Z,7.90
2017-05-10T02:43:06.393Z,7.90
2017-05-10T02:45:34.744Z,7.90
2017-05-10T02:48:03.074Z,7.90
2017-05-10T02:50:32.121Z,7.90
2017-05-10T02:53:00.521Z,7.90
2017-05-10T02:55:30.819Z,7.90
2017-05-10T02:57:59.256Z,7.90
2017-05-10T03:00:27.587Z,7.90
2017-05-10T03:02:55.944Z,7.90
2017-05-10T03:05:24.348Z,7.90
2017-05-10T03:07:52.781Z,7.90
2017-05-10T03:10:21.146Z,7.90
2017-05-10T03:12:49.479Z,7.90
2017-05-10T03:15:18.463Z,7.90
2017-05-10T03:17:46.816Z,7.90
2017-05-10T03:20:15.398Z,7.90
2017-05-10T03:22:43.819Z,7.80
2017-05-10T03:25:12.770Z,7.90
2017-05-10T03:27:41.155Z,7.90
2017-05-10T03:30:09.501Z,7.90
2017-05-10T03:32:38.580Z,8.00
2017-05-10T03:35:06.900Z,8.00
2017-05-10T03:37:35.219Z,8.00
2017-05-10T03:40:04.425Z,8.00
2017-05-10T03:42:32.957Z,8.00
2017-05-10T03:45:01.289Z,8.00
2017-05-10T03:47:30.405Z,8.00
2017-05-10T03:49:59.469Z,8.00
2017-05-10T03:52:27.839Z,8.10
2017-05-10T03:54:56.151Z,8.10
2017-05-10T03:57:24.500Z,8.10
2017-05-10T03:59:52.810Z,8.10
2017-05-10T04:02:21.116Z,8.10
2017-05-10T04:04:49.494Z,8.10
2017-05-10T04:07:17.829Z,8.10
2017-05-10T04:09:46.166Z,8.10
2017-05-10T04:12:15.336Z,8.20
2017-05-10T04:14:43.675Z,8.10
2017-05-10T04:17:12.023Z,8.10
2017-05-10T04:19:40.362Z,8.20
2017-05-10T04:22:08.816Z,8.10
2017-05-10T04:24:37.257Z,8.20
2017-05-10T04:27:06.259Z,8.20
2017-05-10T04:29:34.572Z,8.30
2017-05-10T04:32:03.757Z,8.20
2017-05-10T04:34:32.867Z,8.10
2017-05-10T04:37:01.222Z,8.20
2017-05-10T04:39:29.549Z,8.30
2017-05-10T04:41:58.594Z,8.30
2017-05-10T04:44:26.961Z,8.30
2017-05-10T04:46:55.334Z,8.30
2017-05-10T04:49:23.830Z,8.20
2017-05-10T04:51:52.274Z,8.30
2017-05-10T04:54:20.913Z,8.30
2017-05-10T04:56:49.393Z,8.30
2017-05-10T04:59:18.151Z,8.20
2017-05-10T05:01:46.655Z,8.20
2017-05-10T05:04:15.064Z,8.20
2017-05-10T05:06:44.133Z,8.20
2017-05-10T05:09:13.486Z,8.20
2017-05-10T05:11:41.956Z,8.20
2017-05-10T05:14:13.851Z,8.20
2017-05-10T05:22:11.714Z,8.20
2017-05-10T05:24:41.145Z,8.30
2017-05-10T05:27:09.597Z,8.40
2017-05-10T05:29:39.504Z,8.50
2017-05-10T05:32:08.743Z,8.50
2017-05-10T05:34:37.998Z,8.60
2017-05-10T05:37:07.976Z,8.70
2017-05-10T05:39:37.392Z,8.70
2017-05-10T05:42:06.732Z,8.70
2017-05-10T05:44:35.244Z,8.70
2017-05-10T05:47:04.628Z,8.80
2017-05-10T05:49:33.189Z,8.80
2017-05-10T05:52:04.578Z,8.80
2017-05-10T05:54:33.730Z,8.90
2017-05-10T05:57:02.975Z,9.00
2017-05-10T05:59:31.295Z,9.00
2017-05-10T06:01:59.638Z,9.10
2017-05-10T06:04:27.991Z,9.30
2017-05-10T06:06:56.325Z,9.40
2017-05-10T06:09:24.830Z,9.50
2017-05-10T06:11:54.231Z,9.60
2017-05-10T06:14:23.390Z,9.60
2017-05-10T06:16:51.746Z,9.60
2017-05-10T06:19:20.227Z,9.70
2017-05-10T06:21:48.560Z,9.70
2017-05-10T06:24:17.655Z,9.70
2017-05-10T06:26:46.741Z,9.80
2017-05-10T06:29:15.805Z,9.80
2017-05-10T06:31:44.161Z,9.80
2017-05-10T06:34:12.507Z,9.80
2017-05-10T06:36:41.553Z,9.70
2017-05-10T06:39:09.952Z,9.70
2017-05-10T06:41:39.029Z,9.80
2017-05-10T06:44:07.866Z,9.90
2017-05-10T06:46:36.914Z,9.90
2017-05-10T06:49:05.937Z,10.00
2017-05-10T06:51:34.268Z,10.00
2017-05-10T06:54:02.926Z,10.20
2017-05-10T06:56:31.266Z,10.20
2017-05-10T06:58:59.610Z,10.20
2017-05-10T07:01:27.991Z,10.10
2017-05-10T07:03:57.106Z,10.10
2017-05-10T07:06:26.501Z,10.00
2017-05-10T07:08:55.117Z,10.10
2017-05-10T07:11:23.513Z,10.10
2017-05-10T07:13:52.605Z,10.00
2017-05-10T07:16:21.649Z,10.10
2017-05-10T07:18:50.002Z,10.10
2017-05-10T07:21:25.215Z,10.20
2017-05-10T07:23:56.007Z,10.20
2017-05-10T07:26:24.364Z,10.30
2017-05-10T07:28:52.690Z,10.50
2017-05-10T07:31:21.031Z,10.70
2017-05-10T07:33:50.391Z,10.70
2017-05-10T07:36:19.628Z,10.50
2017-05-10T07:38:47.969Z,10.50
2017-05-10T07:41:17.783Z,10.40
2017-05-10T07:43:46.852Z,10.50
2017-05-10T07:46:15.174Z,10.50
2017-05-10T07:48:43.949Z,10.60
2017-05-10T07:51:12.295Z,10.60
2017-05-10T07:53:41.465Z,10.70
2017-05-10T07:56:09.991Z,10.80
2017-05-10T07:58:38.313Z,10.90
2017-05-10T08:01:06.690Z,11.00
2017-05-10T08:03:35.070Z,11.00
2017-05-10T08:06:03.453Z,10.90
2017-05-10T08:08:32.564Z,10.90
2017-05-10T08:11:00.889Z,11.00
2017-05-10T08:13:29.961Z,10.90
2017-05-10T08:15:58.334Z,11.00
2017-05-10T08:18:27.188Z,11.00
2017-05-10T08:20:55.541Z,11.10
2017-05-10T08:23:23.901Z,11.00
2017-05-10T08:25:53.005Z,11.10
2017-05-10T08:28:22.091Z,11.10
2017-05-10T08:30:50.475Z,11.10
2017-05-10T08:33:20.121Z,11.10
2017-05-10T08:35:48.474Z,11.10
2017-05-10T08:38:16.931Z,11.10
2017-05-10T08:44:00.809Z,11.10
2017-05-10T08:46:29.961Z,11.10
2017-05-10T08:48:58.271Z,11.20
2017-05-10T08:51:26.625Z,11.10
2017-05-10T08:53:55.797Z,11.10
2017-05-10T08:56:27.980Z,11.00
2017-05-10T08:58:56.360Z,11.00
2017-05-10T09:01:26.808Z,11.00
2017-05-10T09:03:56.821Z,11.10
2017-05-10T09:06:29.482Z,11.10
2017-05-10T09:09:02.087Z,11.20
2017-05-10T09:11:33.183Z,11.30
2017-05-10T09:14:03.886Z,11.30
2017-05-10T09:16:32.265Z,11.40
2017-05-10T09:21:38.794Z,11.40
2017-05-10T09:24:07.338Z,11.50
2017-05-10T09:29:09.891Z,11.60
2017-05-10T09:31:38.376Z,11.80
2017-05-10T09:34:06.865Z,11.90
2017-05-10T09:36:35.197Z,12.10
2017-05-10T09:39:03.543Z,12.10
2017-05-10T09:41:32.915Z,12.10
2017-05-10T09:44:01.243Z,12.10
2017-05-10T09:46:29.577Z,12.20
2017-05-10T09:48:59.355Z,12.30
2017-05-10T09:51:27.706Z,12.40
2017-05-10T09:53:56.020Z,12.30
2017-05-10T09:56:24.340Z,12.30
2017-05-10T09:58:54.154Z,12.30
2017-05-10T10:01:29.445Z,12.30
2017-05-10T10:03:57.769Z,12.00
2017-05-10T10:06:26.201Z,11.70
2017-05-10T10:08:54.646Z,11.70
2017-05-10T10:11:25.420Z,11.90
2017-05-10T10:13:54.577Z,12.00
2017-05-10T10:16:22.958Z,12.10
2017-05-10T10:18:52.618Z,12.20
2017-05-10T10:21:20.950Z,12.30
2017-05-10T10:23:49.299Z,12.50
2017-05-10T10:26:18.515Z,12.70
2017-05-10T10:28:47.329Z,12.80
2017-05-10T10:31:15.686Z,12.80
2017-05-10T10:33:44.070Z,12.80
2017-05-10T10:36:12.496Z,12.70
2017-05-10T10:38:40.908Z,12.60
2017-05-10T10:41:09.328Z,12.70
2017-05-10T10:43:37.658Z,12.90
2017-05-10T10:46:06.716Z,12.90
2017-05-10T10:48:35.129Z,12.90
2017-05-10T10:51:04.284Z,12.80
2017-05-10T10:53:32.661Z,12.80
2017-05-10T10:56:01.041Z,12.70
2017-05-10T10:58:29.460Z,12.70
2017-05-10T11:00:58.608Z,12.80
2017-05-10T11:03:28.086Z,12.70
2017-05-10T11:05:56.522Z,12.40
2017-05-10T11:08:25.671Z,12.20
2017-05-10T11:10:54.014Z,12.30
2017-05-10T11:13:23.085Z,12.30
2017-05-10T11:15:51.747Z,12.10
2017-05-10T11:18:21.387Z,12.10
2017-05-10T11:20:49.739Z,12.00
2017-05-10T11:23:18.224Z,12.20
2017-05-10T11:25:46.637Z,12.60
2017-05-10T11:28:15.759Z,13.30
2017-05-10T11:30:44.174Z,13.90
2017-05-10T11:33:13.798Z,13.60
2017-05-10T11:35:42.318Z,13.30
2017-05-10T11:38:11.369Z,13.10
2017-05-10T11:40:40.692Z,13.20
2017-05-10T11:43:09.212Z,13.30
2017-05-10T11:45:38.012Z,14.00
2017-05-10T11:48:06.419Z,15.20
2017-05-10T11:50:35.415Z,16.00
2017-05-10T11:53:03.791Z,15.60
2017-05-10T11:55:32.220Z,15.30
2017-05-10T11:58:00.917Z,15.10
2017-05-10T12:00:30.787Z,15.00
2017-05-10T12:03:16.994Z,14.90
2017-05-10T12:05:46.367Z,15.20
2017-05-10T12:08:15.538Z,15.10
2017-05-10T12:10:45.753Z,14.90
2017-05-10T12:13:14.227Z,14.60
2017-05-10T12:15:42.591Z,14.20
2017-05-10T12:18:11.824Z,14.10
2017-05-10T12:20:41.616Z,14.30
2017-05-10T12:23:10.051Z,14.50
2017-05-10T12:25:41.003Z,14.80
2017-05-10T12:28:09.378Z,15.00
2017-05-10T12:30:38.624Z,14.90
2017-05-10T12:33:08.892Z,14.70
2017-05-10T12:35:42.933Z,14.60
2017-05-10T12:38:11.279Z,14.60
2017-05-10T12:40:39.575Z,14.50
2017-05-10T12:43:08.845Z,14.10
2017-05-10T12:45:37.214Z,14.10
2017-05-10T12:48:06.621Z,14.20
2017-05-10T12:50:36.290Z,14.30
2017-05-10T12:53:04.855Z,14.60
2017-05-10T12:55:33.961Z,14.60
2017-05-10T12:58:02.414Z,14.50
2017-05-10T13:00:31.597Z,14.70
2017-05-10T13:03:00.680Z,14.70
2017-05-10T13:05:29.077Z,14.30
2017-05-10T13:07:57.509Z,14.00
2017-05-10T13:10:25.921Z,13.70
2017-05-10T13:12:54.286Z,13.60
2017-05-10T13:15:22.722Z,13.60
2017-05-10T13:17:51.100Z,13.80
2017-05-10T13:20:22.233Z,14.00
2017-05-10T13:22:50.716Z,14.00
2017-05-10T13:28:04.910Z,13.80
2017-05-10T13:30:33.391Z,13.80
2017-05-10T13:33:01.803Z,14.00
2017-05-10T13:35:30.203Z,14.20
2017-05-10T13:37:59.697Z,14.60
2017-05-10T13:40:28.293Z,14.70
2017-05-10T13:42:56.769Z,15.10
2017-05-10T13:45:25.905Z,15.20
2017-05-10T13:47:54.326Z,15.10
2017-05-10T13:50:22.676Z,15.20
2017-05-10T13:52:51.040Z,15.20
2017-05-10T13:55:20.188Z,15.00
2017-05-10T13:57:48.616Z,14.70
2017-05-10T14:00:16.981Z,14.60
2017-05-10T14:02:46.095Z,14.50
2017-05-10T14:05:14.476Z,14.60
2017-05-10T14:07:43.730Z,14.70
2017-05-10T14:10:13.361Z,15.00
2017-05-10T14:12:42.497Z,15.30
2017-05-10T14:15:10.807Z,15.20
2017-05-10T14:17:40.783Z,15.00
2017-05-10T14:20:09.151Z,15.00
2017-05-10T14:22:37.662Z,14.90
2017-05-10T14:25:06.148Z,14.90
2017-05-10T14:27:34.494Z,14.90
2017-05-10T14:30:02.883Z,15.00
2017-05-10T14:32:31.242Z,15.20
2017-05-10T14:35:00.605Z,15.30
2017-05-10T14:37:29.009Z,15.40
2017-05-10T14:39:58.117Z,15.70
2017-05-10T14:42:29.271Z,15.70
2017-05-10T14:45:01.160Z,15.80
2017-05-10T14:47:31.281Z,15.90
2017-05-10T14:50:00.320Z,16.00
2017-05-10T14:52:30.076Z,15.90
2017-05-10T14:54:59.188Z,15.80
2017-05-10T14:57:27.894Z,15.80
2017-05-10T14:59:56.278Z,15.80
2017-05-10T15:02:25.796Z,15.80
2017-05-10T15:04:55.697Z,15.60
2017-05-10T15:07:24.804Z,15.60
2017-05-10T15:09:53.301Z,15.90
2017-05-10T15:12:22.692Z,16.10
2017-05-10T15:14:51.774Z,16.30
2017-05-10T15:17:20.324Z,16.20
2017-05-10T15:19:48.692Z,16.20
2017-05-10T15:22:16.992Z,16.00
2017-05-10T15:24:46.392Z,16.20
2017-05-10T15:27:15.298Z,16.70
2017-05-10T15:29:43.629Z,16.90
2017-05-10T15:32:14.283Z,17.20
2017-05-10T15:34:43.474Z,17.30
2017-05-10T15:37:11.847Z,17.10
2017-05-10T15:39:41.066Z,17.30
2017-05-10T15:42:09.447Z,17.70
2017-05-10T15:44:37.810Z,17.60
2017-05-10T15:47:06.346Z,17.30
2017-05-10T15:49:37.118Z,17.40
2017-05-10T15:52:05.465Z,17.40
2017-05-10T15:54:34.606Z,17.70
2017-05-10T15:57:02.928Z,17.80
2017-05-10T15:59:31.995Z,17.60
2017-05-10T16:02:00.495Z,17.80
2017-05-10T16:04:28.875Z,17.90
2017-05-10T16:06:57.205Z,18.10
2017-05-10T16:09:25.575Z,18.00
2017-05-10T16:11:53.975Z,18.20
2017-05-10T16:14:22.356Z,17.50
2017-05-10T16:16:50.682Z,17.70
2017-05-10T16:19:19.852Z,17.70
2017-05-10T16:21:48.264Z,17.90
2017-05-10T16:24:17.330Z,18.30
2017-05-10T16:26:48.942Z,18.40
2017-05-10T16:32:18.880Z,19.20
2017-05-10T16:34:57.803Z,19.90
2017-05-10T16:37:27.177Z,19.90
2017-05-10T16:39:56.693Z,19.70
2017-05-10T16:42:43.970Z,19.40
2017-05-10T16:45:17.877Z,19.10
2017-05-10T16:47:46.803Z,18.90
2017-05-10T16:50:16.619Z,18.50
2017-05-10T16:52:45.054Z,18.30
2017-05-10T16:55:13.934Z,18.30
2017-05-10T16:57:45.867Z,18.40
2017-05-10T17:00:14.277Z,18.50
2017-05-10T17:02:48.157Z,18.80
2017-05-10T17:05:17.525Z,19.10
2017-05-10T17:07:51.641Z,19.10
2017-05-10T17:10:21.009Z,19.00
2017-05-10T17:13:02.805Z,18.80
2017-05-10T17:15:33.076Z,18.30
2017-05-10T17:18:11.998Z,17.80
2017-05-10T17:20:40.471Z,17.50
2017-05-10T17:23:14.305Z,17.20
2017-05-10T17:25:43.817Z,16.90
2017-05-10T17:28:15.943Z,16.60
2017-05-10T17:30:57.359Z,16.30
2017-05-10T17:33:50.891Z,16.00
2017-05-10T17:39:09.596Z,15.40
2017-05-10T17:44:33.183Z,15.00
2017-05-10T17:47:02.417Z,14.90
2017-05-10T17:49:37.291Z,14.80
2017-05-10T17:52:05.763Z,14.60
2017-05-10T17:54:34.646Z,14.30
2017-05-10T17:57:05.881Z,14.20
2017-05-10T18:06:27.920Z,14.00
2017-05-10T18:08:56.433Z,13.90
2017-05-10T18:11:25.900Z,13.80
2017-05-10T18:16:41.958Z,13.70
2017-05-10T18:19:11.185Z,13.60
2017-05-10T18:21:40.628Z,13.50
2017-05-10T18:24:09.036Z,13.40
2017-05-10T18:26:37.480Z,13.40
2017-05-10T18:29:08.011Z,13.30
2017-05-10T18:31:36.587Z,13.30
2017-05-10T18:34:04.955Z,13.20
2017-05-10T18:36:33.350Z,13.10
2017-05-10T18:39:01.691Z,13.00
2017-05-10T18:41:30.145Z,12.90
2017-05-10T18:44:00.912Z,12.90
2017-05-10T18:46:29.350Z,12.80
2017-05-10T18:48:57.780Z,12.70
2017-05-10T18:51:29.634Z,12.70
2017-05-10T18:54:14.831Z,12.60
2017-05-10T18:59:30.087Z,12.50
2017-05-10T19:02:00.727Z,12.40
2017-05-10T19:04:29.221Z,12.40
2017-05-10T19:06:57.623Z,12.30
2017-05-10T19:09:30.783Z,12.30
2017-05-10T19:11:59.182Z,12.20
2017-05-10T19:14:27.660Z,12.10
2017-05-10T19:16:56.181Z,12.10
2017-05-10T19:19:24.627Z,12.00
2017-05-10T19:21:54.403Z,12.00
2017-05-10T19:24:23.710Z,11.90
2017-05-10T19:26:54.113Z,11.90
2017-05-10T19:29:22.700Z,11.80
2017-05-10T19:31:58.975Z,11.80
2017-05-10T19:34:27.673Z,11.80
2017-05-10T19:36:56.143Z,11.80
2017-05-10T19:39:25.148Z,11.70
2017-05-10T19:41:53.590Z,11.70
2017-05-10T19:44:24.652Z,11.60
2017-05-10T19:46:54.641Z,11.60
2017-05-10T19:49:24.366Z,11.60
2017-05-10T19:51:56.726Z,11.50
2017-05-10T19:54:25.421Z,11.50
2017-05-10T19:56:55.883Z,11.40
2017-05-10T19:59:24.326Z,11.40
2017-05-10T20:01:52.810Z,11.40
2017-05-10T20:04:21.378Z,11.30
2017-05-10T20:06:52.254Z,11.30
2017-05-10T20:09:24.027Z,11.20
2017-05-10T20:11:53.535Z,11.20
2017-05-10T20:14:22.010Z,11.20
2017-05-10T20:16:54.010Z,11.20
2017-05-10T20:19:24.765Z,11.10
2017-05-10T20:21:53.247Z,11.10
2017-05-10T20:24:22.241Z,11.10
2017-05-10T20:26:50.779Z,11.10
2017-05-10T20:29:28.334Z,11.10
2017-05-10T20:32:00.005Z,11.00
2017-05-10T20:37:06.094Z,11.00
2017-05-10T20:39:35.319Z,10.90
2017-05-10T20:42:04.383Z,10.90
2017-05-10T20:44:33.476Z,10.90
2017-05-10T20:47:03.496Z,10.90
2017-05-10T20:52:10.592Z,10.80
2017-05-10T20:54:38.982Z,10.80
2017-05-10T20:57:07.341Z,10.80
2017-05-10T20:59:36.542Z,10.80
2017-05-10T21:02:04.931Z,10.70
2017-05-10T21:04:33.370Z,10.70
2017-05-10T21:07:01.790Z,10.70
2017-05-10T21:09:30.253Z,10.70
2017-05-10T21:11:59.523Z,10.70
2017-05-10T21:14:28.675Z,10.70
2017-05-10T21:16:57.259Z,10.70
2017-05-10T21:19:25.615Z,10.60
2017-05-10T21:21:54.733Z,10.60
2017-05-10T21:24:23.824Z,10.60
2017-05-10T21:26:52.280Z,10.60
2017-05-10T21:29:21.392Z,10.50
2017-05-10T21:31:52.609Z,10.60
2017-05-10T21:34:43.311Z,10.50
2017-05-10T21:37:28.621Z,10.50
2017-05-10T21:39:58.037Z,10.40
2017-05-10T21:42:36.733Z,10.40
2017-05-10T21:47:43.610Z,10.30
2017-05-10T21:50:12.917Z,10.30
2017-05-10T21:52:52.602Z,10.30
2017-05-10T21:55:23.970Z,10.30
2017-05-10T22:00:30.327Z,10.20
2017-05-10T22:02:58.753Z,10.20
2017-05-10T22:05:28.152Z,10.20
2017-05-10T22:08:01.073Z,10.10
2017-05-10T22:10:35.931Z,10.10
2017-05-10T22:13:04.360Z,10.10
2017-05-10T22:15:32.828Z,10.10
2017-05-10T22:18:01.275Z,10.10
2017-05-10T22:20:29.801Z,10.00
2017-05-10T22:22:59.855Z,10.00
2017-05-10T22:25:28.217Z,10.00
2017-05-10T22:27:59.221Z,10.00
2017-05-10T22:30:27.932Z,10.00
2017-05-10T22:33:01.333Z,10.00
2017-05-10T22:35:37.674Z,10.00
2017-05-10T22:38:09.080Z,10.00
2017-05-10T22:43:18.570Z,9.90
2017-05-10T22:45:47.740Z,9.90
2017-05-10T22:48:16.189Z,9.90
2017-05-10T22:50:45.320Z,9.90
2017-05-10T22:53:22.846Z,9.90
2017-05-10T22:55:51.904Z,9.80
2017-05-10T22:58:20.286Z,9.80
2017-05-10T23:00:48.696Z,9.80
2017-05-10T23:03:17.079Z,9.70
2017-05-10T23:05:45.463Z,9.70
2017-05-10T23:08:14.135Z,9.70
2017-05-10T23:10:42.521Z,9.70
2017-05-10T23:13:10.936Z,9.60
2017-05-10T23:15:39.807Z,9.60
2017-05-10T23:18:10.173Z,9.50
2017-05-10T23:20:39.767Z,9.50
2017-05-10T23:23:08.109Z,9.50
2017-05-10T23:25:36.481Z,9.40
2017-05-10T23:28:04.927Z,9.40
2017-05-10T23:30:33.343Z,9.40
2017-05-10T23:35:39.209Z,9.30
2017-05-10T23:38:07.549Z,9.30
2017-05-10T23:40:35.902Z,9.30
2017-05-10T23:43:04.312Z,9.30
2017-05-10T23:45:32.772Z,9.30
2017-05-10T23:48:01.142Z,9.20
2017-05-10T23:50:29.507Z,9.20
2017-05-10T23:52:58.581Z,9.10
2017-05-10T23:55:26.890Z,9.10
2017-05-10T23:57:55.320Z,9.10
